Byrd, Ohio
Current Conditions -  °F | °C
As of 8:15 PM on Friday 24 Oct 2014 (Local Time) from KFGX Reporting Station
Clear Clear  
Wind Chill: 53°   Ceiling: Unl
Heat Index: 53°   Visibility: 10mi
Dew Point: 41°   Wind: 6mph
Humidity: 64%   Direction: 210°SSW
Pressure: 30.07"   Gusts: NA
Location:  38.8148°N, 83.7054°W
Report Text: KFGX 250015Z AUTO 21005KT 10SM CLR 12/05 A3007 RMK AO2 T01170050
Loading
Personal Weather Stations






























Interactive Weather Map
Tropical Storm Tracking
New forecast layout! Learn more

10-Day Weather Forecast

Advertisements
Track Severe Weather on mobile